createdAt,value
2023-04-22T06:32:09.764Z,146.25
2023-04-22T06:33:09.783Z,146.25
2023-04-22T06:34:09.789Z,151.88
2023-04-22T06:35:11.482Z,151.88
2023-04-22T06:36:10.948Z,151.88
2023-04-22T06:37:11.155Z,151.88
2023-04-22T06:38:10.915Z,151.88
2023-04-22T06:39:10.896Z,157.50
2023-04-22T06:40:10.900Z,157.50
2023-04-22T06:41:10.902Z,168.75
2023-04-22T06:42:10.930Z,174.38
2023-04-22T06:43:10.877Z,174.38
2023-04-22T06:44:10.978Z,174.38
2023-04-22T06:45:10.831Z,174.38
2023-04-22T06:46:10.882Z,180.00
2023-04-22T06:47:10.914Z,180.00
2023-04-22T06:48:10.808Z,180.00
2023-04-22T06:49:10.832Z,180.00
2023-04-22T06:50:10.824Z,180.00
2023-04-22T06:51:10.772Z,180.00
2023-04-22T06:52:10.823Z,185.62
2023-04-22T06:53:10.842Z,185.62
2023-04-22T06:54:10.763Z,185.62
2023-04-22T06:55:10.753Z,185.62
2023-04-22T06:56:10.738Z,191.25
2023-04-22T06:57:10.743Z,191.25
2023-04-22T06:58:10.831Z,191.25
2023-04-22T06:59:10.748Z,196.88
2023-04-22T07:00:10.711Z,196.88
2023-04-22T07:01:10.686Z,196.88
2023-04-22T07:02:10.842Z,202.50
2023-04-22T07:03:10.721Z,202.50
2023-04-22T07:04:10.686Z,202.50
2023-04-22T07:05:10.698Z,208.12
2023-04-22T07:06:10.672Z,213.75
2023-04-22T07:07:10.677Z,213.75
2023-04-22T07:08:10.586Z,219.38
2023-04-22T07:09:10.631Z,219.38
2023-04-22T07:10:10.635Z,219.38
2023-04-22T07:11:11.893Z,219.38
2023-04-22T07:12:11.569Z,225.00
2023-04-22T07:13:10.553Z,230.62
2023-04-22T07:14:10.561Z,241.88
2023-04-22T07:15:10.643Z,241.88
2023-04-22T07:16:10.699Z,241.88
2023-04-22T07:17:10.563Z,241.88
2023-04-22T07:18:10.489Z,247.50
2023-04-22T07:19:10.590Z,247.50
2023-04-22T07:20:10.488Z,253.12
2023-04-22T07:21:10.569Z,258.75
2023-04-22T07:22:10.501Z,264.38
2023-04-22T07:23:10.488Z,264.38
2023-04-22T07:24:10.442Z,264.38
2023-04-22T07:25:10.424Z,264.38
2023-04-22T07:26:11.489Z,264.38
2023-04-22T07:27:10.464Z,264.38
2023-04-22T07:28:10.424Z,264.38
2023-04-22T07:29:10.398Z,270.00
2023-04-22T07:30:10.478Z,264.38
2023-04-22T07:31:10.432Z,270.00
2023-04-22T07:32:10.413Z,270.00
2023-04-22T07:33:10.461Z,275.62
2023-04-22T07:34:10.367Z,270.00
2023-04-22T07:35:10.466Z,275.62
2023-04-22T07:36:10.368Z,281.25
2023-04-22T07:37:10.360Z,286.88
2023-04-22T07:38:12.134Z,286.88
2023-04-22T07:39:10.352Z,286.88
2023-04-22T07:40:10.511Z,286.88
2023-04-22T07:41:10.312Z,281.25
2023-04-22T07:42:10.449Z,281.25
2023-04-22T07:43:10.307Z,281.25
2023-04-22T07:44:10.367Z,286.88
2023-04-22T07:45:10.297Z,292.50
2023-04-22T07:46:10.419Z,298.12
2023-04-22T07:47:10.515Z,309.38
2023-04-22T07:48:10.361Z,309.38
2023-04-22T07:49:10.283Z,315.00
2023-04-22T07:50:10.300Z,320.62
2023-04-22T07:51:10.255Z,320.62
2023-04-22T07:52:10.217Z,320.62
2023-04-22T07:53:10.198Z,326.25
2023-04-22T07:54:10.315Z,331.88
2023-04-22T07:55:10.163Z,331.88
2023-04-22T07:56:10.193Z,331.88
2023-04-22T07:57:10.154Z,331.88
2023-04-22T07:58:10.176Z,326.25
2023-04-22T07:59:10.108Z,326.25
2023-04-22T08:00:10.149Z,326.25
2023-04-22T08:01:10.297Z,331.88
2023-04-22T08:02:10.323Z,337.50
2023-04-22T08:03:10.388Z,343.12
2023-04-22T08:04:10.497Z,348.75
2023-04-22T08:05:10.284Z,348.75
2023-04-22T08:06:10.099Z,354.38
2023-04-22T08:07:29.687Z,354.38
2023-04-22T08:08:12.080Z,354.38
2023-04-22T08:09:10.029Z,360.00
2023-04-22T08:10:10.311Z,360.00
2023-04-22T08:11:09.995Z,360.00
2023-04-22T08:12:10.199Z,360.00
2023-04-22T08:15:42.163Z,320.62
2023-04-22T08:18:32.156Z,303.75
2023-04-22T08:19:34.844Z,303.75
2023-04-22T08:20:35.086Z,303.75
2023-04-22T08:21:30.468Z,303.75
2023-04-22T08:22:30.480Z,298.12
2023-04-22T08:23:30.585Z,315.00
2023-04-22T08:24:31.652Z,303.75
2023-04-22T08:25:31.695Z,315.00
2023-04-22T08:26:31.611Z,292.50
2023-04-22T08:27:31.734Z,292.50
2023-04-22T08:28:31.592Z,298.12
2023-04-22T08:29:31.613Z,303.75
2023-04-22T08:30:32.216Z,320.62
2023-04-22T08:31:32.534Z,309.38
2023-04-22T08:32:31.798Z,303.75
2023-04-22T08:33:31.542Z,326.25
2023-04-22T08:34:31.822Z,320.62
2023-04-22T08:35:31.595Z,320.62
2023-04-22T08:36:31.572Z,315.00
2023-04-22T08:37:31.591Z,331.88
2023-04-22T08:38:31.477Z,331.88
2023-04-22T08:39:37.951Z,354.38
2023-04-22T08:40:31.462Z,348.75
2023-04-22T08:41:31.591Z,348.75
2023-04-22T08:42:31.508Z,326.25
2023-04-22T08:43:31.449Z,360.00
2023-04-22T08:44:31.463Z,337.50
2023-04-22T08:45:31.465Z,326.25
2023-04-22T08:46:31.430Z,348.75
2023-04-22T08:47:31.450Z,348.75
2023-04-22T08:48:32.019Z,376.88
2023-04-22T08:49:31.377Z,371.25
2023-04-22T08:50:31.374Z,371.25
2023-04-22T08:51:32.275Z,388.12
2023-04-22T08:52:31.352Z,382.50
2023-04-22T08:53:31.371Z,360.00
2023-04-22T08:54:31.302Z,382.50
2023-04-22T08:55:32.323Z,382.50
2023-04-22T08:56:31.530Z,388.12
2023-04-22T08:57:31.348Z,388.12
2023-04-22T08:58:31.319Z,371.25
2023-04-22T08:59:31.265Z,371.25
2023-04-22T09:00:31.251Z,376.88
2023-04-22T09:01:31.301Z,376.88
2023-04-22T09:02:31.333Z,365.62
2023-04-22T09:03:31.316Z,365.62
2023-04-22T09:04:31.298Z,360.00
2023-04-22T09:05:31.233Z,360.00
2023-04-22T09:06:31.209Z,360.00
2023-04-22T09:07:31.188Z,354.38
2023-04-22T09:08:31.151Z,348.75
2023-04-22T09:09:31.257Z,348.75
2023-04-22T09:10:32.336Z,331.88
2023-04-22T09:11:31.212Z,326.25
2023-04-22T09:12:31.157Z,320.62
2023-04-22T09:13:31.185Z,326.25
2023-04-22T09:14:31.184Z,320.62
2023-04-22T09:15:34.114Z,315.00
2023-04-22T09:16:31.129Z,315.00
2023-04-22T09:17:31.175Z,315.00
2023-04-22T09:18:31.127Z,320.62
2023-04-22T09:19:31.112Z,326.25
2023-04-22T09:20:31.086Z,337.50
2023-04-22T09:21:31.082Z,343.12
2023-04-22T09:22:31.030Z,348.75
2023-04-22T09:23:31.096Z,343.12
2023-04-22T09:24:31.109Z,320.62
2023-04-22T09:25:30.974Z,320.62
2023-04-22T09:26:31.030Z,337.50
2023-04-22T09:27:31.122Z,343.12
2023-04-22T09:28:31.014Z,337.50
2023-04-22T09:29:30.991Z,337.50
2023-04-22T09:30:30.984Z,337.50
2023-04-22T09:31:30.987Z,331.88
2023-04-22T09:32:31.103Z,292.50
2023-04-22T09:33:30.885Z,303.75
2023-04-22T09:34:31.010Z,326.25
2023-04-22T09:35:30.941Z,337.50
2023-04-22T09:36:30.883Z,331.88
2023-04-22T09:37:42.531Z,348.75
2023-04-22T09:38:32.885Z,354.38
2023-04-22T09:39:31.004Z,337.50
2023-04-22T09:40:30.979Z,315.00
2023-04-22T09:41:30.908Z,315.00
2023-04-22T09:42:30.850Z,309.38
2023-04-22T09:43:30.854Z,298.12
2023-04-22T09:44:30.779Z,303.75
2023-04-22T09:45:30.912Z,315.00
2023-04-22T09:46:30.874Z,331.88
2023-04-22T09:47:31.052Z,326.25
2023-04-22T09:48:31.671Z,326.25
2023-04-22T09:49:30.794Z,337.50
2023-04-22T09:50:30.737Z,337.50
2023-04-22T09:51:30.913Z,326.25
2023-04-22T09:52:30.837Z,337.50
2023-04-22T09:53:30.758Z,348.75
2023-04-22T09:54:30.758Z,343.12
2023-04-22T09:55:30.717Z,331.88
2023-04-22T09:56:30.787Z,348.75
2023-04-22T09:57:30.750Z,343.12
2023-04-22T09:58:30.645Z,343.12
2023-04-22T09:59:30.731Z,320.62
2023-04-22T10:00:30.708Z,286.88
2023-04-22T10:01:30.782Z,320.62
2023-04-22T10:02:30.711Z,348.75
2023-04-22T10:03:31.711Z,348.75
2023-04-22T10:04:30.711Z,343.12
2023-04-22T10:05:30.608Z,371.25
2023-04-22T10:06:30.651Z,376.88
2023-04-22T10:07:30.720Z,376.88
2023-04-22T10:08:30.572Z,376.88
2023-04-22T10:09:30.552Z,371.25
2023-04-22T10:10:30.520Z,376.88
2023-04-22T10:11:30.577Z,376.88
2023-04-22T10:12:35.483Z,376.88
2023-04-22T10:13:32.550Z,376.88
2023-04-22T10:14:30.478Z,376.88
2023-04-22T10:15:30.554Z,365.62
2023-04-22T10:16:30.532Z,371.25
2023-04-22T10:17:30.619Z,382.50
2023-04-22T10:18:30.476Z,382.50
2023-04-22T10:19:30.449Z,393.75
2023-04-22T10:20:30.434Z,399.38
2023-04-22T10:21:30.458Z,393.75
2023-04-22T10:22:30.584Z,399.38
2023-04-22T10:23:30.399Z,405.00
2023-04-22T10:24:30.552Z,405.00
2023-04-22T10:25:30.372Z,410.62
2023-04-22T10:26:30.359Z,410.62
2023-04-22T10:27:30.483Z,405.00
2023-04-22T10:28:30.428Z,405.00
2023-04-22T10:29:31.200Z,410.62
2023-04-22T10:30:30.329Z,410.62
2023-04-22T10:31:30.502Z,410.62
2023-04-22T10:32:30.394Z,410.62
2023-04-22T10:33:30.274Z,416.25
2023-04-22T10:34:30.302Z,427.50
2023-04-22T10:35:30.347Z,433.12
2023-04-22T10:36:31.199Z,438.75
2023-04-22T10:37:31.791Z,438.75
2023-04-22T10:38:30.247Z,450.00
2023-04-22T10:39:30.264Z,455.62
2023-04-22T10:40:30.258Z,466.88
2023-04-22T10:41:30.271Z,466.88
2023-04-22T10:42:30.405Z,466.88
2023-04-22T10:43:31.820Z,472.50
2023-04-22T10:44:30.429Z,472.50
2023-04-22T10:45:30.254Z,466.88
2023-04-22T10:46:30.245Z,461.25
2023-04-22T10:47:30.232Z,466.88
2023-04-22T10:48:30.174Z,472.50
2023-04-22T10:49:30.179Z,466.88
2023-04-22T10:50:30.221Z,461.25
2023-04-22T10:51:30.139Z,461.25
2023-04-22T10:52:30.285Z,455.62
2023-04-22T10:53:30.110Z,450.00
2023-04-22T10:54:32.110Z,450.00
2023-04-22T10:55:31.081Z,433.12
2023-04-22T10:56:30.117Z,461.25
2023-04-22T10:57:30.117Z,478.12
2023-04-22T10:58:30.032Z,483.75
2023-04-22T10:59:30.077Z,478.12
2023-04-22T11:00:41.821Z,466.88
2023-04-22T11:01:32.232Z,489.38
2023-04-22T11:02:30.211Z,506.25
2023-04-22T11:03:30.608Z,495.00
2023-04-22T11:04:30.238Z,489.38
2023-04-22T11:05:30.054Z,500.62
2023-04-22T11:06:30.058Z,511.88
2023-04-22T11:07:30.139Z,534.38
2023-04-22T11:08:30.004Z,540.00
2023-04-22T11:09:30.002Z,551.25
2023-04-22T11:10:29.907Z,540.00
2023-04-22T11:11:30.019Z,511.88
2023-04-22T11:12:29.983Z,489.38
2023-04-22T11:13:30.688Z,483.75
2023-04-22T11:14:29.889Z,472.50
2023-04-22T11:15:30.602Z,421.88
2023-04-22T11:16:29.935Z,421.88
2023-04-22T11:17:29.904Z,405.00
2023-04-22T11:18:30.748Z,393.75
2023-04-22T11:19:30.605Z,399.38
2023-04-22T11:20:29.861Z,393.75
2023-04-22T11:21:29.830Z,393.75
2023-04-22T11:22:29.862Z,382.50
2023-04-22T11:23:30.823Z,376.88
2023-04-22T11:24:30.830Z,376.88
2023-04-22T11:25:29.784Z,382.50
2023-04-22T11:26:29.772Z,382.50
2023-04-22T11:27:29.802Z,376.88
2023-04-22T11:28:29.766Z,371.25
2023-04-22T11:29:29.789Z,382.50
2023-04-22T11:30:29.743Z,388.12
2023-04-22T11:31:29.779Z,393.75
2023-04-22T11:32:30.524Z,393.75
2023-04-22T11:33:29.701Z,399.38
2023-04-22T11:34:29.715Z,405.00
2023-04-22T11:35:29.698Z,410.62
2023-04-22T11:36:29.749Z,410.62
2023-04-22T11:37:29.692Z,410.62
2023-04-22T11:38:29.649Z,410.62
2023-04-22T11:39:29.776Z,393.75
2023-04-22T11:40:31.176Z,393.75
2023-04-22T11:41:30.640Z,343.12
2023-04-22T11:42:29.686Z,331.88
2023-04-22T11:43:30.403Z,337.50
2023-04-22T11:44:29.639Z,331.88
2023-04-22T11:45:29.681Z,326.25
2023-04-22T11:46:29.738Z,337.50
2023-04-22T11:47:29.626Z,343.12
2023-04-22T11:48:29.598Z,388.12
2023-04-22T11:49:29.618Z,348.75
2023-04-22T11:50:30.597Z,343.12
2023-04-22T11:51:29.535Z,331.88
2023-04-22T11:52:30.121Z,343.12
2023-04-22T11:53:29.530Z,348.75
2023-04-22T11:54:29.466Z,360.00
2023-04-22T11:55:29.481Z,360.00
2023-04-22T11:56:29.497Z,360.00
2023-04-22T11:57:30.550Z,365.62
2023-04-22T11:58:29.485Z,360.00
2023-04-22T11:59:29.468Z,365.62
2023-04-22T12:00:29.421Z,376.88
2023-04-22T12:01:29.437Z,388.12
2023-04-22T12:02:30.465Z,388.12
2023-04-22T12:03:29.753Z,388.12
2023-04-22T12:04:29.404Z,382.50
2023-04-22T12:05:29.635Z,388.12
2023-04-22T12:06:29.462Z,388.12
2023-04-22T12:07:29.416Z,393.75
2023-04-22T12:08:29.396Z,405.00
2023-04-22T12:09:29.400Z,405.00
2023-04-22T12:10:29.365Z,393.75
2023-04-22T12:11:29.365Z,399.38
2023-04-22T12:12:29.375Z,405.00
2023-04-22T12:13:30.453Z,410.62
2023-04-22T12:14:29.300Z,427.50
2023-04-22T12:15:29.306Z,438.75
2023-04-22T12:16:29.335Z,450.00
2023-04-22T12:17:29.357Z,450.00
2023-04-22T12:18:30.222Z,455.62
2023-04-22T12:19:29.280Z,489.38
2023-04-22T12:20:29.297Z,489.38
2023-04-22T12:21:29.224Z,478.12
2023-04-22T12:22:29.264Z,489.38
2023-04-22T12:23:29.211Z,568.12
2023-04-22T12:24:29.311Z,528.75
2023-04-22T12:25:29.201Z,534.38
2023-04-22T12:26:29.175Z,517.50
2023-04-22T12:27:30.414Z,528.75
2023-04-22T12:28:29.214Z,596.25
2023-04-22T12:29:29.790Z,635.62
2023-04-22T12:30:29.120Z,630.00
2023-04-22T12:31:29.305Z,573.75
2023-04-22T12:32:29.099Z,607.50
2023-04-22T12:33:29.194Z,635.62
2023-04-22T12:34:29.163Z,646.88
2023-04-22T12:35:29.148Z,618.75
2023-04-22T12:36:29.107Z,624.38
2023-04-22T12:37:29.192Z,652.50
2023-04-22T12:38:29.059Z,652.50
2023-04-22T12:39:29.051Z,652.50
2023-04-22T12:40:29.127Z,652.50
2023-04-22T12:41:28.992Z,663.75
2023-04-22T12:42:28.991Z,669.38
2023-04-22T12:43:29.124Z,618.75
2023-04-22T12:44:29.047Z,585.00
2023-04-22T12:45:29.000Z,551.25
2023-04-22T12:46:28.998Z,545.62
2023-04-22T12:47:29.021Z,556.88
2023-04-22T12:48:29.046Z,579.38
2023-04-22T12:49:29.010Z,630.00
2023-04-22T12:50:29.022Z,590.62
2023-04-22T12:51:30.683Z,601.88
2023-04-22T12:52:29.480Z,573.75
2023-04-22T12:53:28.959Z,579.38
2023-04-22T12:54:28.952Z,601.88
2023-04-22T12:55:28.884Z,613.12
2023-04-22T12:56:28.885Z,590.62
2023-04-22T12:57:29.062Z,607.50
2023-04-22T12:58:28.925Z,641.25
2023-04-22T12:59:28.953Z,641.25
2023-04-22T13:00:29.478Z,618.75
2023-04-22T13:01:28.869Z,618.75
2023-04-22T13:02:29.004Z,607.50
2023-04-22T13:03:29.203Z,630.00
2023-04-22T13:04:28.907Z,624.38
2023-04-22T13:05:28.881Z,607.50
2023-04-22T13:06:28.865Z,596.25
2023-04-22T13:07:28.753Z,618.75
2023-04-22T13:08:28.841Z,590.62
2023-04-22T13:09:28.816Z,540.00
2023-04-22T13:10:28.708Z,534.38
2023-04-22T13:11:28.731Z,556.88
2023-04-22T13:12:28.754Z,517.50
2023-04-22T13:13:28.800Z,500.62
2023-04-22T13:14:28.695Z,579.38
2023-04-22T13:15:28.686Z,562.50
2023-04-22T13:16:28.701Z,562.50
2023-04-22T13:17:28.662Z,523.12
2023-04-22T13:18:28.640Z,568.12
2023-04-22T13:19:28.808Z,624.38
2023-04-22T13:20:28.636Z,607.50
2023-04-22T13:21:28.746Z,618.75
2023-04-22T13:22:28.627Z,630.00
2023-04-22T13:23:28.705Z,635.62
2023-04-22T13:24:28.622Z,579.38
2023-04-22T13:25:28.591Z,613.12
2023-04-22T13:26:28.570Z,556.88
2023-04-22T13:27:28.658Z,641.25
2023-04-22T13:28:28.587Z,658.12
2023-04-22T13:29:28.519Z,613.12
2023-04-22T13:30:28.543Z,652.50
2023-04-22T13:31:29.390Z,506.25
2023-04-22T13:32:28.580Z,500.62
2023-04-22T13:33:28.512Z,523.12
2023-04-22T13:34:28.536Z,579.38
2023-04-22T13:35:28.502Z,573.75
2023-04-22T13:36:28.701Z,500.62
2023-04-22T13:37:28.560Z,500.62
2023-04-22T13:38:28.694Z,511.88
2023-04-22T13:39:28.551Z,528.75
2023-04-22T13:40:28.571Z,506.25
2023-04-22T13:41:28.433Z,511.88
2023-04-22T13:42:28.422Z,528.75
2023-04-22T13:43:28.502Z,551.25
2023-04-22T13:44:28.361Z,568.12
2023-04-22T13:45:28.502Z,579.38
2023-04-22T13:46:28.389Z,585.00
2023-04-22T13:47:28.464Z,601.88
2023-04-22T13:48:28.811Z,624.38
2023-04-22T13:49:29.300Z,658.12
2023-04-22T13:50:29.220Z,675.00
2023-04-22T13:51:29.252Z,669.38
2023-04-22T13:52:28.472Z,624.38
2023-04-22T13:53:30.120Z,568.12
2023-04-22T13:54:29.698Z,523.12
2023-04-22T13:55:29.045Z,506.25
2023-04-22T13:56:28.394Z,483.75
2023-04-22T13:57:29.800Z,466.88
2023-04-22T13:58:29.188Z,455.62
2023-04-22T13:59:28.255Z,433.12
2023-04-22T14:00:28.243Z,410.62
2023-04-22T14:01:28.298Z,393.75
2023-04-22T14:02:29.270Z,393.75
2023-04-22T14:03:28.951Z,438.75
2023-04-22T14:04:28.361Z,489.38
2023-04-22T14:05:29.175Z,787.50
2023-04-22T14:06:28.168Z,905.62
2023-04-22T14:07:28.188Z,1029.38
2023-04-22T14:08:28.177Z,1130.62
2023-04-22T14:09:28.277Z,877.50
2023-04-22T14:10:28.831Z,1119.38
2023-04-22T14:11:29.154Z,478.12
2023-04-22T14:12:28.162Z,562.50
2023-04-22T14:13:28.106Z,523.12
2023-04-22T14:14:28.288Z,421.88
2023-04-22T14:15:28.146Z,405.00
2023-04-22T14:16:28.114Z,444.38
2023-04-22T14:17:28.112Z,472.50
2023-04-22T14:18:28.107Z,815.62
2023-04-22T14:19:28.034Z,472.50
2023-04-22T14:20:28.030Z,511.88
2023-04-22T14:21:29.522Z,776.25
2023-04-22T14:22:28.005Z,455.62
2023-04-22T14:23:28.044Z,382.50
2023-04-22T14:24:28.026Z,365.62
2023-04-22T14:25:28.100Z,517.50
2023-04-22T14:26:28.720Z,405.00
2023-04-22T14:27:28.014Z,331.88
2023-04-22T14:28:27.993Z,281.25
2023-04-22T14:29:27.959Z,253.12
2023-04-22T14:30:27.975Z,241.88
2023-04-22T14:31:28.015Z,241.88
2023-04-22T14:32:28.019Z,253.12
2023-04-22T14:33:27.942Z,247.50
2023-04-22T14:34:27.955Z,241.88
2023-04-22T14:35:27.986Z,247.50
2023-04-22T14:36:27.879Z,624.38
2023-04-22T14:37:27.967Z,365.62
2023-04-22T14:38:27.840Z,371.25
2023-04-22T14:39:27.870Z,365.62
2023-04-22T14:40:27.839Z,376.88
2023-04-22T14:41:28.739Z,956.25
2023-04-22T14:42:27.920Z,405.00
2023-04-22T14:43:28.168Z,427.50
2023-04-22T14:44:27.838Z,472.50
2023-04-22T14:45:27.796Z,540.00
2023-04-22T14:46:27.844Z,1378.12
2023-04-22T14:47:28.040Z,376.88
2023-04-22T14:48:27.734Z,1788.75
2023-04-22T14:49:27.797Z,1586.25
2023-04-22T14:50:27.819Z,354.38
2023-04-22T14:51:27.819Z,331.88
2023-04-22T14:52:27.852Z,286.88
2023-04-22T14:53:27.701Z,270.00
2023-04-22T14:54:27.753Z,258.75
2023-04-22T14:55:27.675Z,253.12
2023-04-22T14:56:27.732Z,253.12
2023-04-22T14:57:27.651Z,247.50
2023-04-22T14:58:27.706Z,264.38
2023-04-22T14:59:27.648Z,270.00
2023-04-22T15:00:27.673Z,264.38
2023-04-22T15:01:27.753Z,270.00
2023-04-22T15:02:27.708Z,253.12
2023-04-22T15:03:28.388Z,230.62
2023-04-22T15:04:27.657Z,213.75
2023-04-22T15:05:27.621Z,202.50
2023-04-22T15:06:27.555Z,196.88
2023-04-22T15:07:27.622Z,185.62
2023-04-22T15:08:27.804Z,180.00
2023-04-22T15:09:27.605Z,168.75
2023-04-22T15:10:27.564Z,163.12
2023-04-22T15:11:27.537Z,151.88
2023-04-22T15:12:27.542Z,146.25
2023-04-22T15:13:27.617Z,146.25
2023-04-22T15:14:28.203Z,129.38
2023-04-22T15:15:27.567Z,123.75
2023-04-22T15:16:27.479Z,118.12
2023-04-22T15:17:28.256Z,118.12
2023-04-22T15:18:27.556Z,112.50
2023-04-22T15:19:27.574Z,106.88
2023-04-22T15:20:27.462Z,95.62
2023-04-22T15:21:27.552Z,84.38
2023-04-22T15:22:27.401Z,78.75
2023-04-22T15:23:27.448Z,78.75
2023-04-22T15:24:27.537Z,78.75
2023-04-22T15:25:27.425Z,73.12
2023-04-22T15:26:28.126Z,73.12
2023-04-22T15:27:27.369Z,78.75
2023-04-22T15:28:27.410Z,78.75
2023-04-22T15:29:27.339Z,84.38
2023-04-22T15:30:27.348Z,84.38
2023-04-22T15:31:27.475Z,78.75
2023-04-22T15:32:27.289Z,73.12
2023-04-22T15:33:27.406Z,67.50
2023-04-22T15:34:27.318Z,67.50
2023-04-22T15:35:27.512Z,73.12
2023-04-22T15:36:27.256Z,73.12
2023-04-22T15:37:27.267Z,78.75
2023-04-22T15:38:27.278Z,90.00
2023-04-22T15:39:27.251Z,95.62
2023-04-22T15:40:27.242Z,101.25
2023-04-22T15:41:27.222Z,106.88
2023-04-22T15:42:27.449Z,106.88
2023-04-22T15:43:27.204Z,101.25
2023-04-22T15:44:32.699Z,95.62
2023-04-22T15:45:28.247Z,90.00
2023-04-22T15:47:51.090Z,84.38
2023-04-22T15:47:53.762Z,78.75
2023-04-22T15:48:55.004Z,67.50
2023-04-22T15:49:52.967Z,61.88
2023-04-22T15:50:53.072Z,50.62
2023-04-22T15:51:59.105Z,50.62
2023-04-22T15:52:54.765Z,45.00
2023-04-22T15:53:57.515Z,45.00
2023-04-22T15:54:52.780Z,45.00
2023-04-22T15:55:53.267Z,39.38
2023-04-22T15:56:53.103Z,39.38
2023-04-22T15:57:52.628Z,45.00
2023-04-22T15:58:52.593Z,45.00
2023-04-22T16:00:06.683Z,45.00
2023-04-22T16:01:01.742Z,45.00
2023-04-22T16:01:56.386Z,50.62
2023-04-22T16:02:54.509Z,50.62
2023-04-22T16:03:52.982Z,50.62
2023-04-22T16:04:52.832Z,50.62
2023-04-22T16:05:52.533Z,50.62
2023-04-22T16:06:52.522Z,45.00
2023-04-22T16:07:54.321Z,45.00
2023-04-22T16:08:53.570Z,45.00
2023-04-22T16:09:53.833Z,39.38
2023-04-22T16:10:52.487Z,39.38
2023-04-22T16:11:52.545Z,39.38
2023-04-22T16:12:52.612Z,39.38
2023-04-22T16:13:52.553Z,39.38
2023-04-22T16:14:52.450Z,39.38
2023-04-22T16:15:53.290Z,33.75
2023-04-22T16:16:52.513Z,33.75
2023-04-22T16:17:52.522Z,33.75
2023-04-22T16:18:55.850Z,33.75
2023-04-22T16:19:52.477Z,28.12
2023-04-22T16:20:52.501Z,28.12
2023-04-22T16:21:52.379Z,28.12
2023-04-22T16:22:52.384Z,28.12
2023-04-22T16:23:52.368Z,28.12
2023-04-22T16:24:52.477Z,28.12
2023-04-22T16:25:52.340Z,28.12
2023-04-22T16:26:52.360Z,28.12
2023-04-22T16:27:52.290Z,28.12
2023-04-22T16:28:52.313Z,28.12
2023-04-22T16:29:52.435Z,28.12
2023-04-22T16:30:52.325Z,28.12
2023-04-22T16:31:52.274Z,28.12
2023-04-22T16:32:52.299Z,28.12
2023-04-22T16:33:52.259Z,28.12
2023-04-22T16:34:52.300Z,28.12
2023-04-22T16:35:52.243Z,22.50
2023-04-22T16:36:52.229Z,22.50
2023-04-22T16:37:52.206Z,22.50
2023-04-22T16:38:52.291Z,22.50
2023-04-22T16:39:52.186Z,22.50
2023-04-22T16:40:52.186Z,22.50
2023-04-22T16:41:52.183Z,22.50
2023-04-22T16:42:52.184Z,22.50
2023-04-22T16:43:52.126Z,22.50
2023-04-22T16:44:52.129Z,22.50
2023-04-22T16:45:52.164Z,22.50
2023-04-22T16:46:52.133Z,22.50
2023-04-22T16:47:52.140Z,16.88
2023-04-22T16:48:52.085Z,22.50
2023-04-22T16:49:52.735Z,22.50
2023-04-22T16:50:52.068Z,22.50
2023-04-22T16:51:52.109Z,22.50
2023-04-22T16:52:52.081Z,22.50
2023-04-22T16:53:52.099Z,22.50
2023-04-22T16:54:52.050Z,22.50
2023-04-22T16:55:52.042Z,22.50
2023-04-22T16:56:52.072Z,22.50
2023-04-22T16:57:52.008Z,22.50
2023-04-22T16:58:52.021Z,22.50
2023-04-22T16:59:51.992Z,22.50
2023-04-22T17:00:51.989Z,22.50
2023-04-22T17:01:52.879Z,22.50
2023-04-22T17:02:52.113Z,22.50
2023-04-22T17:03:52.202Z,22.50
2023-04-22T17:04:51.960Z,22.50
2023-04-22T17:05:51.964Z,22.50
2023-04-22T17:06:51.965Z,22.50
2023-04-22T17:07:51.917Z,16.88
2023-04-22T17:08:51.954Z,16.88
2023-04-22T17:09:51.898Z,16.88
2023-04-22T17:10:51.880Z,16.88
2023-04-22T17:11:51.889Z,16.88
2023-04-22T17:12:51.843Z,16.88
2023-04-22T17:13:51.900Z,16.88
2023-04-22T17:14:51.830Z,16.88
2023-04-22T17:15:51.851Z,16.88
2023-04-22T17:16:51.833Z,16.88
2023-04-22T17:17:51.928Z,16.88
2023-04-22T17:18:51.771Z,16.88
2023-04-22T17:19:51.817Z,16.88
2023-04-22T17:20:51.772Z,16.88
2023-04-22T17:21:51.761Z,16.88
2023-04-22T17:22:51.901Z,16.88
2023-04-22T17:23:51.763Z,16.88
2023-04-22T17:24:51.747Z,16.88
2023-04-22T17:25:51.692Z,16.88
2023-04-22T17:26:51.769Z,16.88
2023-04-22T17:27:51.691Z,16.88
2023-04-22T17:28:51.710Z,16.88
2023-04-22T17:29:52.289Z,16.88
2023-04-22T17:30:51.673Z,22.50
2023-04-22T17:31:51.768Z,22.50
2023-04-22T17:32:52.667Z,22.50
2023-04-22T17:33:51.704Z,22.50
2023-04-22T17:34:51.639Z,16.88
2023-04-22T17:35:51.645Z,16.88
2023-04-22T17:36:51.783Z,22.50
2023-04-22T17:37:51.600Z,22.50
2023-04-22T17:38:51.660Z,28.12
2023-04-22T17:39:51.619Z,28.12
2023-04-22T17:40:51.866Z,28.12
2023-04-22T17:41:51.605Z,33.75
2023-04-22T17:42:51.590Z,33.75
2023-04-22T17:43:51.601Z,33.75
2023-04-22T17:44:51.579Z,39.38
2023-04-22T17:45:51.597Z,39.38
2023-04-22T17:46:51.618Z,39.38
2023-04-22T17:47:51.655Z,33.75
2023-04-22T17:48:51.500Z,33.75
2023-04-22T17:49:51.508Z,28.12
2023-04-22T17:50:51.512Z,28.12
2023-04-22T17:51:51.468Z,22.50
2023-04-22T17:52:52.262Z,22.50
2023-04-22T17:53:51.453Z,22.50
2023-04-22T17:54:51.462Z,22.50
2023-04-22T17:55:51.429Z,22.50
2023-04-22T17:56:51.424Z,22.50
2023-04-22T17:57:51.389Z,22.50
2023-04-22T17:58:51.367Z,28.12
2023-04-22T17:59:52.344Z,28.12
2023-04-22T18:00:51.413Z,28.12
2023-04-22T18:01:51.479Z,28.12
2023-04-22T18:02:51.484Z,22.50
2023-04-22T18:03:51.480Z,22.50
2023-04-22T18:04:51.384Z,22.50
2023-04-22T18:05:51.311Z,22.50
2023-04-22T18:06:52.311Z,22.50
2023-04-22T18:07:52.293Z,16.88
2023-04-22T18:08:51.308Z,16.88
2023-04-22T18:09:51.343Z,16.88
2023-04-22T18:10:51.327Z,16.88
2023-04-22T18:11:51.270Z,16.88
2023-04-22T18:12:51.260Z,11.25
2023-04-22T18:13:51.833Z,11.25
2023-04-22T18:14:51.230Z,11.25
2023-04-22T18:15:51.216Z,5.62
2023-04-22T18:16:51.249Z,5.62
2023-04-22T18:17:51.312Z,5.62
2023-04-22T18:18:51.284Z,5.62
2023-04-22T18:19:51.352Z,0.00
2023-04-22T18:20:51.170Z,0.00
2023-04-22T18:21:59.523Z,0.00
2023-04-22T18:22:53.151Z,0.00
2023-04-22T18:23:51.136Z,0.00
2023-04-22T18:24:51.150Z,0.00
2023-04-22T18:25:51.173Z,0.00
2023-04-22T18:26:51.132Z,0.00
2023-04-22T18:27:51.093Z,0.00
2023-04-22T18:28:51.116Z,0.00
2023-04-22T18:29:51.783Z,0.00
2023-04-22T18:30:51.061Z,0.00
2023-04-22T18:31:51.218Z,0.00
2023-04-22T18:32:51.178Z,0.00
2023-04-22T18:33:51.104Z,0.00
2023-04-22T18:34:51.026Z,0.00
2023-04-22T18:35:51.018Z,0.00
2023-04-22T18:36:51.054Z,0.00
2023-04-22T18:37:51.006Z,0.00
2023-04-22T18:38:51.048Z,0.00
2023-04-22T18:39:51.013Z,0.00
2023-04-22T18:40:51.051Z,0.00
2023-04-22T18:41:50.961Z,0.00
2023-04-22T18:42:50.946Z,0.00
2023-04-22T18:43:50.945Z,0.00
2023-04-22T18:44:50.934Z,0.00
2023-04-22T18:45:50.972Z,0.00
2023-04-22T18:46:50.945Z,0.00
2023-04-22T18:47:50.955Z,0.00
2023-04-22T18:48:50.920Z,0.00
2023-04-22T18:49:50.917Z,0.00
2023-04-22T18:50:51.762Z,0.00
2023-04-22T18:51:50.862Z,0.00
2023-04-22T18:52:50.839Z,0.00
2023-04-22T18:53:50.939Z,0.00
2023-04-22T18:54:50.962Z,0.00
2023-04-22T18:55:50.820Z,0.00
2023-04-22T18:56:51.826Z,0.00
2023-04-22T18:57:50.869Z,0.00
2023-04-22T18:58:50.801Z,0.00
2023-04-22T18:59:50.771Z,0.00
2023-04-22T19:00:50.776Z,0.00
2023-04-22T19:01:50.922Z,0.00
2023-04-22T19:02:50.870Z,0.00
2023-04-22T19:03:50.851Z,0.00
2023-04-22T19:04:50.970Z,0.00
2023-04-22T19:05:50.719Z,0.00
2023-04-22T19:06:50.697Z,0.00
2023-04-22T19:07:50.764Z,0.00
2023-04-22T19:08:51.658Z,0.00
2023-04-22T19:09:50.661Z,0.00
2023-04-22T19:10:50.717Z,0.00
2023-04-22T19:11:50.685Z,0.00
2023-04-22T19:12:50.706Z,0.00
2023-04-22T19:13:52.378Z,0.00